Time;durP1;ratioP1;P1;durP2;ratioP2;P2;SDS_P1;SDS_P2;PMS_P1;PMS_P2;Temp;Humidity;BMP_temperature;BMP_pressure;BME280_temperature;BME280_humidity;BME280_pressure;Samples;Min_cycle;Max_cycle;Signal;HPM_P1;HPM_P2
2021/03/18 00:01:56;;;;;;;11.93;2.27;;;;;;;;;;5076307;28;20055;-57
2021/03/18 00:04:21;;;;;;;13.43;2.37;;;;;;;;;;5075479;28;20437;-57
2021/03/18 00:06:47;;;;;;;15.70;2.93;;;;;;;;;;5076278;28;20510;-57
2021/03/18 00:09:14;;;;;;;14.25;2.50;;;;;;;;;;5093815;28;20058;-57
2021/03/18 00:11:43;;;;;;;13.25;2.88;;;;;;;;;;5094375;28;20085;-57
2021/03/18 00:14:09;;;;;;;14.38;2.40;;;;;;;;;;5093826;28;20056;-57
2021/03/18 00:16:35;;;;;;;9.13;2.50;;;;;;;;;;5094019;28;20387;-56
2021/03/18 00:19:01;;;;;;;9.23;2.87;;;;;;;;;;5093701;28;20036;-56
2021/03/18 00:21:26;;;;;;;9.80;2.55;;;;;;;;;;5094475;28;20280;-57
2021/03/18 00:23:52;;;;;;;12.33;4.37;;;;;;;;;;5075827;28;20055;-58
2021/03/18 00:26:21;;;;;;;9.23;3.07;;;;;;;;;;5093587;28;20463;-57
2021/03/18 00:28:47;;;;;;;9.13;2.35;;;;;;;;;;5076051;28;20361;-58
2021/03/18 00:31:12;;;;;;;10.20;3.03;;;;;;;;;;5093086;28;20042;-58
2021/03/18 00:33:38;;;;;;;18.23;2.97;;;;;;;;;;5093635;28;20036;-57
2021/03/18 00:36:04;;;;;;;16.10;2.70;;;;;;;;;;5075830;28;20028;-56
2021/03/18 00:38:29;;;;;;;9.10;2.10;;;;;;;;;;5093882;28;20043;-57
2021/03/18 00:40:56;;;;;;;12.20;2.77;;;;;;;;;;5075837;28;20036;-56
2021/03/18 00:43:22;;;;;;;11.65;2.53;;;;;;;;;;5092948;28;20074;-56
2021/03/18 00:45:48;;;;;;;14.88;2.97;;;;;;;;;;5075654;28;20112;-57
2021/03/18 00:48:14;;;;;;;15.35;2.60;;;;;;;;;;5074685;28;20119;-58
2021/03/18 00:51:00;;;;;;;11.63;2.55;;;;;;;;;;5093810;28;20345;-57
2021/03/18 00:53:30;;;;;;;9.30;3.03;;;;;;;;;;5074941;28;20051;-56
2021/03/18 00:55:56;;;;;;;11.07;2.45;;;;;;;;;;5093650;28;20268;-58
2021/03/18 00:58:21;;;;;;;20.15;4.18;;;;;;;;;;5074757;28;20468;-56
2021/03/18 01:00:48;;;;;;;14.55;2.42;;;;;;;;;;5075239;28;20482;-57
2021/03/18 01:03:15;;;;;;;10.93;3.03;;;;;;;;;;5074587;28;20089;-57
2021/03/18 01:05:42;;;;;;;14.38;3.08;;;;;;;;;;5093548;28;20468;-56
2021/03/18 01:08:09;;;;;;;7.50;2.13;;;;;;;;;;5074777;28;20043;-57
2021/03/18 01:10:38;;;;;;;9.18;2.88;;;;;;;;;;5093510;28;20032;-58
2021/03/18 01:13:03;;;;;;;12.05;2.80;;;;;;;;;;5075275;28;20026;-57
2021/03/18 01:15:28;;;;;;;6.97;2.33;;;;;;;;;;5093847;28;20351;-56
2021/03/18 01:17:54;;;;;;;16.40;4.13;;;;;;;;;;5094021;28;20065;-55
2021/03/18 01:20:20;;;;;;;13.80;2.45;;;;;;;;;;5093030;28;20063;-56
2021/03/18 01:22:46;;;;;;;10.68;2.67;;;;;;;;;;5094023;28;20043;-57
2021/03/18 01:25:12;;;;;;;10.40;2.63;;;;;;;;;;5074979;28;20108;-56
2021/03/18 01:27:38;;;;;;;11.65;2.35;;;;;;;;;;5093664;28;20032;-56
2021/03/18 01:30:16;;;;;;;7.05;2.63;;;;;;;;;;5093228;28;20161;-56
2021/03/18 01:32:42;;;;;;;17.23;2.70;;;;;;;;;;5092436;28;20046;-56
2021/03/18 01:35:12;;;;;;;12.32;3.40;;;;;;;;;;5092908;28;20459;-56
2021/03/18 01:37:38;;;;;;;11.02;2.75;;;;;;;;;;5092323;28;20097;-56
2021/03/18 01:40:06;;;;;;;9.87;3.73;;;;;;;;;;5092407;28;20475;-55
2021/03/18 01:42:31;;;;;;;13.07;2.45;;;;;;;;;;5092156;28;20078;-56
2021/03/18 01:44:57;;;;;;;12.63;2.70;;;;;;;;;;5092681;28;20051;-55
2021/03/18 01:47:22;;;;;;;14.10;2.97;;;;;;;;;;5073746;28;20097;-56
2021/03/18 01:49:47;;;;;;;12.50;2.83;;;;;;;;;;5092542;28;20414;-56
2021/03/18 01:52:13;;;;;;;10.07;2.47;;;;;;;;;;5092274;28;20036;-57
2021/03/18 01:54:38;;;;;;;9.17;2.10;;;;;;;;;;5073397;28;20065;-55
2021/03/18 01:57:04;;;;;;;15.13;3.30;;;;;;;;;;5074240;28;20032;-58
2021/03/18 01:59:30;;;;;;;17.20;3.53;;;;;;;;;;5091776;28;20042;-58
2021/03/18 02:01:55;;;;;;;9.90;2.53;;;;;;;;;;5074196;28;20054;-55
2021/03/18 02:04:20;;;;;;;9.33;2.13;;;;;;;;;;5091478;28;20086;-57
2021/03/18 02:06:46;;;;;;;20.07;3.97;;;;;;;;;;5092075;28;20437;-55
2021/03/18 02:09:11;;;;;;;12.07;3.30;;;;;;;;;;5091974;28;20459;-57
2021/03/18 02:11:36;;;;;;;11.50;2.27;;;;;;;;;;5091483;28;20036;-56
2021/03/18 02:14:02;;;;;;;11.53;2.60;;;;;;;;;;5073969;28;20035;-54
2021/03/18 02:16:30;;;;;;;9.97;2.80;;;;;;;;;;5091548;28;20043;-57
2021/03/18 02:19:00;;;;;;;13.93;2.58;;;;;;;;;;5073565;28;20036;-55
2021/03/18 02:21:25;;;;;;;14.32;2.80;;;;;;;;;;5073225;28;20024;-57
2021/03/18 02:23:50;;;;;;;8.00;2.60;;;;;;;;;;5092082;28;20035;-57
2021/03/18 02:26:34;;;;;;;8.23;2.47;;;;;;;;;;5091721;28;20467;-56
2021/03/18 02:29:18;;;;;;;7.35;2.97;;;;;;;;;;5091529;28;20498;-56
2021/03/18 02:31:44;;;;;;;9.02;2.80;;;;;;;;;;5091532;28;20111;-58
2021/03/18 02:34:21;;;;;;;28.87;3.23;;;;;;;;;;5074055;28;20202;-56
2021/03/18 02:36:47;;;;;;;8.98;2.67;;;;;;;;;;5073905;28;20035;-57
2021/03/18 02:39:15;;;;;;;10.13;2.30;;;;;;;;;;5073613;28;20055;-57
2021/03/18 02:41:45;;;;;;;9.13;3.50;;;;;;;;;;5091119;28;20633;-57
2021/03/18 02:44:15;;;;;;;10.85;2.60;;;;;;;;;;5073536;28;20032;-56
2021/03/18 02:46:40;;;;;;;12.50;2.28;;;;;;;;;;5090623;28;20533;-57
2021/03/18 02:49:06;;;;;;;7.88;2.33;;;;;;;;;;5073517;28;20020;-56
2021/03/18 02:51:33;;;;;;;13.85;2.80;;;;;;;;;;5076044;28;20042;-55
2021/03/18 02:53:58;;;;;;;;;;;;;;;;;;5096102;28;20552;-57
2021/03/18 02:56:24;;;;;;;12.43;2.70;;;;;;;;;;5077422;28;20010;-58
2021/03/18 02:58:50;;;;;;;13.10;2.75;;;;;;;;;;5096669;28;20062;-56
2021/03/18 03:01:17;;;;;;;8.70;3.03;;;;;;;;;;5096760;28;20115;-57
2021/03/18 03:03:44;;;;;;;12.68;3.22;;;;;;;;;;5095694;28;20268;-57
2021/03/18 03:06:11;;;;;;;19.58;3.42;;;;;;;;;;5077372;28;20040;-57
2021/03/18 03:08:38;;;;;;;16.38;3.20;;;;;;;;;;5094904;28;20031;-56
2021/03/18 03:11:04;;;;;;;13.10;3.50;;;;;;;;;;5095834;28;20012;-57
2021/03/18 03:13:34;;;;;;;7.00;2.08;;;;;;;;;;5077912;28;20059;-56
2021/03/18 03:16:01;;;;;;;9.30;3.17;;;;;;;;;;5095937;28;20491;-56
2021/03/18 03:18:27;;;;;;;11.23;2.55;;;;;;;;;;5095227;28;20147;-58
2021/03/18 03:20:53;;;;;;;11.75;3.30;;;;;;;;;;5096069;28;20144;-56
2021/03/18 03:23:19;;;;;;;9.43;3.08;;;;;;;;;;5077957;28;20043;-60
2021/03/18 03:25:45;;;;;;;14.48;3.22;;;;;;;;;;5077239;28;20043;-57
2021/03/18 03:28:11;;;;;;;13.95;3.67;;;;;;;;;;5096094;28;20028;-58
2021/03/18 03:30:37;;;;;;;12.10;3.53;;;;;;;;;;5076668;28;20498;-58
2021/03/18 03:33:04;;;;;;;8.65;3.30;;;;;;;;;;5095289;28;20073;-56
2021/03/18 03:35:29;;;;;;;;;;;;;;;;;;5094878;28;20035;-57
2021/03/18 03:37:54;;;;;;;12.63;4.00;;;;;;;;;;5095113;28;19911;-57
2021/03/18 03:40:20;;;;;;;12.73;3.03;;;;;;;;;;5095191;28;20093;-56
2021/03/18 03:42:46;;;;;;;18.97;5.43;;;;;;;;;;5076219;28;20467;-57
2021/03/18 03:45:13;;;;;;;9.35;4.07;;;;;;;;;;5095048;28;20459;-58
2021/03/18 03:47:38;;;;;;;12.75;4.50;;;;;;;;;;5094264;28;20111;-56
2021/03/18 03:50:05;;;;;;;8.63;3.93;;;;;;;;;;5076454;28;20064;-56
2021/03/18 03:52:30;;;;;;;;;;;;;;;;;;5060539;28;20356;-57
2021/03/18 03:55:02;;;;;;;19.73;5.07;;;;;;;;;;5095049;28;19908;-57
2021/03/18 03:57:36;;;;;;;20.10;5.47;;;;;;;;;;5094836;28;20479;-56
2021/03/18 04:00:02;;;;;;;11.63;5.15;;;;;;;;;;5076557;28;20118;-57
2021/03/18 04:02:30;;;;;;;18.50;4.57;;;;;;;;;;5094239;28;20024;-57
2021/03/18 04:04:56;;;;;;;15.88;4.80;;;;;;;;;;5093775;28;20066;-57
2021/03/18 04:07:26;;;;;;;17.15;4.90;;;;;;;;;;5094721;28;20054;-57
2021/03/18 04:09:52;;;;;;;15.93;5.20;;;;;;;;;;5076265;28;20107;-58
2021/03/18 04:12:20;;;;;;;17.02;4.63;;;;;;;;;;5076815;28;20464;-57
2021/03/18 04:14:52;;;;;;;15.32;5.15;;;;;;;;;;5094195;28;20032;-57
2021/03/18 04:17:18;;;;;;;15.27;5.22;;;;;;;;;;5094795;28;20161;-60
2021/03/18 04:19:51;;;;;;;20.07;5.17;;;;;;;;;;5093925;28;20028;-57
2021/03/18 04:22:17;;;;;;;17.50;4.80;;;;;;;;;;5094884;28;20056;-57
2021/03/18 04:24:43;;;;;;;15.23;5.15;;;;;;;;;;5094189;28;20028;-64
2021/03/18 04:27:09;;;;;;;12.98;5.53;;;;;;;;;;5094655;28;20119;-56
2021/03/18 04:29:36;;;;;;;11.83;5.70;;;;;;;;;;5094687;28;20102;-56
2021/03/18 04:32:02;;;;;;;15.23;6.00;;;;;;;;;;5076747;28;20028;-57
2021/03/18 04:34:27;;;;;;;13.30;5.03;;;;;;;;;;5094219;28;20047;-58
2021/03/18 04:36:54;;;;;;;32.42;6.35;;;;;;;;;;5093650;28;20115;-59
2021/03/18 04:39:20;;;;;;;23.05;5.05;;;;;;;;;;5075963;28;20036;-57
2021/03/18 04:41:46;;;;;;;30.75;7.45;;;;;;;;;;5093502;28;20031;-57
2021/03/18 04:44:13;;;;;;;21.55;5.05;;;;;;;;;;5093811;28;20036;-57
2021/03/18 04:46:40;;;;;;;17.23;5.60;;;;;;;;;;5093228;28;20040;-56
2021/03/18 04:49:06;;;;;;;23.35;7.45;;;;;;;;;;5075572;28;20046;-57
2021/03/18 04:51:31;;;;;;;14.57;3.72;;;;;;;;;;5075477;28;20391;-57
2021/03/18 04:53:57;;;;;;;14.73;4.40;;;;;;;;;;5093586;28;20126;-58
2021/03/18 04:56:23;;;;;;;13.02;5.40;;;;;;;;;;5094134;28;20030;-56
2021/03/18 04:58:49;;;;;;;22.85;4.90;;;;;;;;;;5093835;28;20059;-57
2021/03/18 05:01:16;;;;;;;17.53;5.03;;;;;;;;;;5093955;28;20085;-57
2021/03/18 05:03:44;;;;;;;14.73;5.50;;;;;;;;;;5074629;28;20406;-57
2021/03/18 05:06:09;;;;;;;17.02;5.00;;;;;;;;;;5093148;28;20044;-57
2021/03/18 05:08:36;;;;;;;17.33;5.90;;;;;;;;;;5093606;28;20055;-56
2021/03/18 05:11:02;;;;;;;18.80;5.25;;;;;;;;;;5093192;28;20704;-57
2021/03/18 05:13:29;;;;;;;15.65;4.93;;;;;;;;;;5074954;28;20065;-58
2021/03/18 05:15:56;;;;;;;11.50;5.18;;;;;;;;;;5092905;28;20067;-57
2021/03/18 05:18:21;;;;;;;;;;;;;;;;;;5093737;28;20012;-58
2021/03/18 05:20:47;;;;;;;14.03;5.10;;;;;;;;;;5093175;28;19916;-59
2021/03/18 05:23:13;;;;;;;20.45;5.25;;;;;;;;;;5093589;28;20460;-58
2021/03/18 05:25:38;;;;;;;18.83;6.05;;;;;;;;;;5094225;28;20087;-58
2021/03/18 05:28:04;;;;;;;18.60;5.80;;;;;;;;;;5075246;28;20038;-58
2021/03/18 05:30:30;;;;;;;19.60;5.90;;;;;;;;;;5094045;28;20035;-57
2021/03/18 05:32:56;;;;;;;16.90;6.18;;;;;;;;;;5074679;28;20813;-57
2021/03/18 05:35:21;;;;;;;15.50;5.55;;;;;;;;;;5075760;28;20036;-57
2021/03/18 05:37:47;;;;;;;16.67;5.60;;;;;;;;;;5074745;28;20024;-57
2021/03/18 05:40:13;;;;;;;20.43;6.53;;;;;;;;;;5093059;28;20066;-57
2021/03/18 05:42:38;;;;;;;14.68;5.88;;;;;;;;;;5093437;28;20112;-57
2021/03/18 05:45:05;;;;;;;32.15;6.97;;;;;;;;;;5092881;28;20056;-57
2021/03/18 05:47:31;;;;;;;20.30;5.90;;;;;;;;;;5093621;28;20024;-57
2021/03/18 05:49:57;;;;;;;17.13;5.85;;;;;;;;;;5074608;28;20040;-57
2021/03/18 05:52:23;;;;;;;21.42;6.07;;;;;;;;;;5093327;28;20047;-57
2021/03/18 05:54:49;;;;;;;18.00;6.05;;;;;;;;;;5091923;28;20024;-55
2021/03/18 05:57:15;;;;;;;19.35;6.45;;;;;;;;;;5093436;28;20115;-57
2021/03/18 05:59:45;;;;;;;23.40;7.15;;;;;;;;;;5092672;28;20123;-57
2021/03/18 06:02:11;;;;;;;25.45;6.40;;;;;;;;;;5056263;28;20089;-57
2021/03/18 06:04:38;;;;;;;15.68;6.15;;;;;;;;;;5090435;28;20048;-59
2021/03/18 06:07:03;;;;;;;18.40;6.45;;;;;;;;;;5091898;28;20517;-56
2021/03/18 06:09:29;;;;;;;22.50;6.10;;;;;;;;;;5074110;28;20437;-55
2021/03/18 06:11:54;;;;;;;15.87;5.97;;;;;;;;;;5091594;28;20019;-57
2021/03/18 06:14:20;;;;;;;22.90;6.73;;;;;;;;;;5057340;28;20127;-57
2021/03/18 06:16:47;;;;;;;17.13;6.30;;;;;;;;;;5074025;28;20392;-55
2021/03/18 06:19:13;;;;;;;23.30;6.85;;;;;;;;;;5090998;28;20032;-58
2021/03/18 06:21:57;;;;;;;25.90;7.93;;;;;;;;;;5092122;28;20077;-56
2021/03/18 06:24:23;;;;;;;25.08;7.75;;;;;;;;;;5089867;28;20265;-55
2021/03/18 06:26:49;;;;;;;;;;;;;;;;;;5092781;28;20021;-57
2021/03/18 06:29:31;;;;;;;21.80;8.10;;;;;;;;;;5091534;28;19984;-56
2021/03/18 06:31:56;;;;;;;35.03;11.35;;;;;;;;;;5089160;28;20024;-58
2021/03/18 06:34:38;;;;;;;38.63;12.15;;;;;;;;;;5056695;28;20024;-58
2021/03/18 06:37:05;;;;;;;22.45;8.80;;;;;;;;;;5056541;28;20059;-57
2021/03/18 06:39:31;;;;;;;27.25;9.10;;;;;;;;;;5074274;28;20468;-57
2021/03/18 06:41:59;;;;;;;37.70;10.45;;;;;;;;;;5073390;28;20044;-57
2021/03/18 06:44:28;;;;;;;30.02;9.77;;;;;;;;;;5073764;28;20077;-56
2021/03/18 06:47:07;;;;;;;27.90;8.82;;;;;;;;;;5072982;28;20038;-56
2021/03/18 06:49:33;;;;;;;25.42;8.20;;;;;;;;;;5091182;28;20039;-58
2021/03/18 06:52:11;;;;;;;20.63;7.27;;;;;;;;;;5090661;28;20024;-57
2021/03/18 06:54:38;;;;;;;22.35;6.78;;;;;;;;;;5091356;28;20107;-56
2021/03/18 06:57:04;;;;;;;17.63;7.72;;;;;;;;;;5070239;28;20032;-57
2021/03/18 06:59:30;;;;;;;19.95;7.07;;;;;;;;;;5073044;28;20483;-56
2021/03/18 07:01:56;;;;;;;;;;;;;;;;;;5091147;28;20437;-57
2021/03/18 07:04:31;;;;;;;15.80;6.60;;;;;;;;;;5072744;28;19908;-57
2021/03/18 07:06:57;;;;;;;26.08;7.43;;;;;;;;;;5090768;28;20114;-56
2021/03/18 07:09:27;;;;;;;14.00;5.50;;;;;;;;;;5090901;28;20032;-57
2021/03/18 07:11:57;;;;;;;25.33;6.82;;;;;;;;;;5073308;28;20056;-56
2021/03/18 07:14:31;;;;;;;16.33;6.25;;;;;;;;;;5070967;28;20028;-58
2021/03/18 07:16:56;;;;;;;19.38;5.82;;;;;;;;;;5091363;28;20016;-57
2021/03/18 07:19:26;;;;;;;22.10;6.53;;;;;;;;;;5053952;28;20040;-57
2021/03/18 07:21:52;;;;;;;14.68;5.22;;;;;;;;;;5091426;28;20039;-56
2021/03/18 07:24:21;;;;;;;19.60;5.95;;;;;;;;;;5072502;28;20036;-59
2021/03/18 07:26:46;;;;;;;17.92;5.40;;;;;;;;;;5090608;28;20028;-56
2021/03/18 07:29:16;;;;;;;21.47;5.67;;;;;;;;;;5071335;28;20424;-57
2021/03/18 07:31:42;;;;;;;11.52;5.95;;;;;;;;;;5055405;28;20047;-56
2021/03/18 07:34:08;;;;;;;14.48;4.57;;;;;;;;;;5072513;28;20032;-56
2021/03/18 07:36:34;;;;;;;13.73;5.20;;;;;;;;;;5092494;28;20039;-58
2021/03/18 07:38:59;;;;;;;10.88;4.93;;;;;;;;;;5094673;28;20383;-57
2021/03/18 07:41:25;;;;;;;14.33;4.73;;;;;;;;;;5094291;28;20513;-57
2021/03/18 07:43:50;;;;;;;23.00;4.60;;;;;;;;;;5093795;28;20029;-57
2021/03/18 07:46:20;;;;;;;18.33;5.63;;;;;;;;;;5093512;28;20219;-58
2021/03/18 07:48:48;;;;;;;27.88;5.78;;;;;;;;;;5075487;28;20210;-56
2021/03/18 07:51:13;;;;;;;17.83;5.90;;;;;;;;;;5074937;28;20035;-57
2021/03/18 07:53:39;;;;;;;22.17;5.10;;;;;;;;;;5094505;28;20384;-57
2021/03/18 07:56:09;;;;;;;15.95;5.10;;;;;;;;;;5095096;28;20747;-57
2021/03/18 07:58:35;;;;;;;16.77;4.60;;;;;;;;;;5062162;28;20039;-57
2021/03/18 08:01:00;;;;;;;16.98;4.45;;;;;;;;;;5078937;28;20040;-56
2021/03/18 08:03:27;;;;;;;21.00;4.90;;;;;;;;;;5062057;28;20028;-56
2021/03/18 08:05:52;;;;;;;19.17;3.67;;;;;;;;;;5078567;28;20048;-57
2021/03/18 08:08:36;;;;;;;18.77;5.63;;;;;;;;;;5061220;28;20494;-58
2021/03/18 08:11:11;;;;;;;15.65;4.63;;;;;;;;;;5096054;28;20100;-58
2021/03/18 08:13:40;;;;;;;18.63;4.75;;;;;;;;;;5094919;28;20028;-57
2021/03/18 08:16:08;;;;;;;21.70;5.30;;;;;;;;;;5071942;28;20067;-60
2021/03/18 08:18:35;;;;;;;16.75;4.35;;;;;;;;;;5074367;28;20066;-58
2021/03/18 08:21:02;;;;;;;17.37;6.50;;;;;;;;;;5075726;28;20028;-57
2021/03/18 08:23:27;;;;;;;;;;;;;;;;;;5075912;28;20668;-57
2021/03/18 08:25:58;;;;;;;20.77;4.43;;;;;;;;;;5076137;28;19933;-57
2021/03/18 08:28:33;;;;;;;27.17;5.30;;;;;;;;;;5074676;28;20036;-57
2021/03/18 08:30:58;;;;;;;23.27;5.47;;;;;;;;;;5074173;28;20097;-59
2021/03/18 08:33:34;;;;;;;26.47;5.00;;;;;;;;;;5085651;28;20461;-55
2021/03/18 08:36:18;;;;;;;16.17;4.63;;;;;;;;;;5096540;28;20058;-58
2021/03/18 08:38:44;;;;;;;26.33;5.10;;;;;;;;;;5097321;28;20053;-58
2021/03/18 08:41:22;;;;;;;31.08;5.05;;;;;;;;;;5078081;28;20438;-61
2021/03/18 08:44:06;;;;;;;19.98;4.90;;;;;;;;;;5095352;28;20111;-56
2021/03/18 08:46:39;;;;;;;18.15;4.55;;;;;;;;;;5075463;28;20111;-56
2021/03/18 08:49:17;;;;;;;19.98;4.80;;;;;;;;;;5055638;28;20076;-60
2021/03/18 08:51:42;;;;;;;32.70;6.10;;;;;;;;;;5080898;28;20060;-57
2021/03/18 08:54:08;;;;;;;19.23;5.70;;;;;;;;;;5082870;28;20024;-57
2021/03/18 08:56:43;;;;;;;19.90;4.53;;;;;;;;;;5098708;28;20475;-58
2021/03/18 08:59:10;;;;;;;25.38;5.32;;;;;;;;;;5094557;28;20032;-58
2021/03/18 09:01:35;;;;;;;28.15;6.35;;;;;;;;;;5057492;28;20040;-58
2021/03/18 09:04:01;;;;;;;29.90;5.10;;;;;;;;;;5093740;28;20380;-57
2021/03/18 09:06:30;;;;;;;27.70;4.83;;;;;;;;;;5093563;28;20480;-57
2021/03/18 09:08:56;;;;;;;17.23;5.65;;;;;;;;;;5093679;28;20035;-57
2021/03/18 09:11:22;;;;;;;32.17;5.97;;;;;;;;;;5075367;28;20340;-58
2021/03/18 09:13:48;;;;;;;28.65;5.55;;;;;;;;;;5094434;28;20032;-57
2021/03/18 09:16:18;;;;;;;27.83;4.90;;;;;;;;;;5092851;28;20361;-57
2021/03/18 09:18:44;;;;;;;31.20;7.47;;;;;;;;;;5093880;28;20024;-58
2021/03/18 09:21:10;;;;;;;24.93;7.97;;;;;;;;;;5093001;28;20024;-57
2021/03/18 09:23:37;;;;;;;27.25;5.28;;;;;;;;;;5074523;28;20028;-57
2021/03/18 09:26:04;;;;;;;19.90;5.35;;;;;;;;;;5093229;28;20052;-58
2021/03/18 09:28:33;;;;;;;29.48;5.65;;;;;;;;;;5072413;28;20035;-57
2021/03/18 09:30:59;;;;;;;33.03;6.97;;;;;;;;;;5093038;28;20024;-57
2021/03/18 09:33:24;;;;;;;29.88;7.70;;;;;;;;;;5091760;28;20085;-59
2021/03/18 09:35:51;;;;;;;34.10;7.20;;;;;;;;;;5092828;28;20027;-57
2021/03/18 09:38:16;;;;;;;;;;;;;;;;;;5074151;28;20168;-58
2021/03/18 09:40:42;;;;;;;32.00;6.77;;;;;;;;;;5092305;28;20008;-58
2021/03/18 09:43:08;;;;;;;36.95;8.45;;;;;;;;;;5086894;28;20085;-57
2021/03/18 09:45:33;;;;;;;38.17;7.03;;;;;;;;;;5087647;28;20110;-58
2021/03/18 09:47:59;;;;;;;31.00;6.30;;;;;;;;;;5106906;28;20032;-58
2021/03/18 09:50:26;;;;;;;31.25;8.70;;;;;;;;;;5090118;28;20038;-55
2021/03/18 09:53:04;;;;;;;34.42;8.02;;;;;;;;;;5088395;28;20039;-57
2021/03/18 09:55:30;;;;;;;28.83;8.02;;;;;;;;;;5089443;28;20066;-56
2021/03/18 09:57:55;;;;;;;25.55;6.78;;;;;;;;;;5074146;28;20113;-57
2021/03/18 10:00:21;;;;;;;35.80;8.17;;;;;;;;;;5089223;28;20036;-55
2021/03/18 10:02:47;;;;;;;37.87;8.40;;;;;;;;;;5074404;28;20044;-58
2021/03/18 10:05:13;;;;;;;37.58;8.77;;;;;;;;;;5090603;28;20284;-56
2021/03/18 10:07:38;;;;;;;27.05;7.20;;;;;;;;;;5089876;28;20413;-56
2021/03/18 10:10:04;;;;;;;38.73;8.47;;;;;;;;;;5089410;28;20138;-57
2021/03/18 10:12:31;;;;;;;29.25;7.25;;;;;;;;;;5089384;28;20034;-57
2021/03/18 10:14:57;;;;;;;28.52;7.35;;;;;;;;;;5090231;28;20028;-57
2021/03/18 10:17:26;;;;;;;30.83;9.93;;;;;;;;;;5089805;28;20123;-55
2021/03/18 10:19:58;;;;;;;46.30;8.57;;;;;;;;;;5091844;28;20122;-56
2021/03/18 10:22:29;;;;;;;29.90;7.28;;;;;;;;;;5091117;28;20533;-57
2021/03/18 10:25:03;;;;;;;33.15;7.57;;;;;;;;;;5092027;28;20134;-58
2021/03/18 10:27:39;;;;;;;36.10;8.13;;;;;;;;;;5089850;28;20039;-58
2021/03/18 10:30:06;;;;;;;33.45;10.18;;;;;;;;;;5091676;28;20055;-58
2021/03/18 10:32:32;;;;;;;36.72;6.68;;;;;;;;;;5090704;28;20123;-58
2021/03/18 10:34:57;;;;;;;32.43;8.00;;;;;;;;;;5091343;28;20028;-55
2021/03/18 10:37:36;;;;;;;28.73;7.67;;;;;;;;;;5089896;28;20079;-57
2021/03/18 10:40:23;;;;;;;34.92;8.27;;;;;;;;;;5091440;28;20035;-56
2021/03/18 10:42:50;;;;;;;28.75;6.68;;;;;;;;;;5089312;28;20095;-57
2021/03/18 10:45:18;;;;;;;30.52;8.15;;;;;;;;;;5090512;28;20036;-56
2021/03/18 10:47:44;;;;;;;32.33;7.57;;;;;;;;;;5072788;28;20028;-56
2021/03/18 10:50:12;;;;;;;38.70;8.73;;;;;;;;;;5091594;28;20038;-56
2021/03/18 10:52:38;;;;;;;29.70;7.72;;;;;;;;;;5089088;28;20078;-57
2021/03/18 10:55:04;;;;;;;31.75;7.93;;;;;;;;;;5091565;28;20076;-58
2021/03/18 10:57:29;;;;;;;34.50;7.72;;;;;;;;;;5090276;28;20067;-57
2021/03/18 11:00:04;;;;;;;35.17;6.80;;;;;;;;;;5091068;28;20067;-59
2021/03/18 11:02:30;;;;;;;33.05;7.70;;;;;;;;;;5088881;28;20039;-57
2021/03/18 11:04:59;;;;;;;42.65;8.93;;;;;;;;;;5091226;28;20078;-58
2021/03/18 11:07:25;;;;;;;28.65;7.38;;;;;;;;;;5090995;28;20107;-57
2021/03/18 11:10:13;;;;;;;23.10;6.40;;;;;;;;;;5090574;28;20028;-57
2021/03/18 11:12:40;;;;;;;34.10;7.47;;;;;;;;;;5093108;28;20031;-57
2021/03/18 11:15:06;;;;;;;32.78;8.52;;;;;;;;;;5094417;28;20612;-57
2021/03/18 11:17:32;;;;;;;33.63;6.80;;;;;;;;;;5094281;28;20487;-57
2021/03/18 11:20:10;;;;;;;27.80;8.63;;;;;;;;;;5076518;28;20080;-58
2021/03/18 11:22:35;;;;;;;24.70;6.73;;;;;;;;;;5094421;28;20051;-57
2021/03/18 11:25:02;;;;;;;30.73;7.00;;;;;;;;;;5094217;28;20260;-57
2021/03/18 11:27:27;;;;;;;30.77;8.30;;;;;;;;;;5094677;28;20047;-58
2021/03/18 11:29:53;;;;;;;29.10;8.23;;;;;;;;;;5094434;28;20028;-58
2021/03/18 11:32:19;;;;;;;19.87;7.73;;;;;;;;;;5092850;28;20065;-58
2021/03/18 11:34:45;;;;;;;;;;;;;;;;;;5092181;28;20028;-58
2021/03/18 11:37:12;;;;;;;27.07;6.60;;;;;;;;;;5094969;28;19915;-57
2021/03/18 11:39:37;;;;;;;25.27;7.80;;;;;;;;;;5094066;28;20036;-57
2021/03/18 11:42:03;;;;;;;26.42;6.13;;;;;;;;;;5093665;28;20739;-57
2021/03/18 11:44:29;;;;;;;24.10;6.43;;;;;;;;;;5093896;28;20020;-58
2021/03/18 11:47:05;;;;;;;29.50;5.82;;;;;;;;;;5093912;28;20056;-59
2021/03/18 11:49:30;;;;;;;27.43;5.57;;;;;;;;;;5094705;28;20039;-58
2021/03/18 11:51:56;;;;;;;26.10;5.43;;;;;;;;;;5094007;28;20264;-58
2021/03/18 11:54:21;;;;;;;17.97;3.87;;;;;;;;;;5094430;28;20032;-57
2021/03/18 11:56:47;;;;;;;20.73;5.27;;;;;;;;;;5093636;28;20103;-58
2021/03/18 11:59:12;;;;;;;28.07;5.70;;;;;;;;;;5093912;28;20064;-58
2021/03/18 12:01:38;;;;;;;26.85;4.47;;;;;;;;;;5094104;28;20039;-57
2021/03/18 12:04:03;;;;;;;24.60;4.63;;;;;;;;;;5075948;28;20036;-57
2021/03/18 12:06:28;;;;;;;21.47;4.50;;;;;;;;;;5093880;28;20048;-55
2021/03/18 12:08:54;;;;;;;18.80;3.87;;;;;;;;;;5092715;28;20032;-57
2021/03/18 12:11:19;;;;;;;18.63;3.60;;;;;;;;;;5082143;28;20367;-56
2021/03/18 12:13:44;;;;;;;16.77;3.53;;;;;;;;;;5091677;28;20032;-58
2021/03/18 12:16:10;;;;;;;20.50;3.77;;;;;;;;;;5092983;28;20495;-58
2021/03/18 12:18:35;;;;;;;15.87;3.70;;;;;;;;;;5093513;28;20107;-58
2021/03/18 12:21:01;;;;;;;16.43;3.80;;;;;;;;;;5093864;28;20028;-58
2021/03/18 12:23:27;;;;;;;14.30;2.72;;;;;;;;;;5092358;28;20184;-58
2021/03/18 12:25:52;;;;;;;24.60;4.27;;;;;;;;;;5093324;28;20051;-57
2021/03/18 12:28:19;;;;;;;23.33;4.47;;;;;;;;;;5092482;28;20024;-57
2021/03/18 12:30:46;;;;;;;21.90;5.72;;;;;;;;;;5092405;28;20106;-56
2021/03/18 12:33:12;;;;;;;31.77;11.00;;;;;;;;;;5093194;28;20028;-57
2021/03/18 12:35:37;;;;;;;24.60;5.22;;;;;;;;;;5093318;28;20268;-57
2021/03/18 12:38:02;;;;;;;16.07;3.23;;;;;;;;;;5094045;28;20111;-57
2021/03/18 12:40:28;;;;;;;17.27;3.47;;;;;;;;;;5093580;28;20028;-58
2021/03/18 12:42:53;;;;;;;19.80;4.07;;;;;;;;;;5092805;28;20024;-57
2021/03/18 12:45:19;;;;;;;20.60;3.80;;;;;;;;;;5093724;28;20028;-56
2021/03/18 12:47:45;;;;;;;14.02;4.15;;;;;;;;;;5092981;28;20036;-56
2021/03/18 12:50:11;;;;;;;22.88;5.68;;;;;;;;;;5093547;28;20500;-56
2021/03/18 12:52:37;;;;;;;;;;;;;;;;;;5093985;28;20036;-57
2021/03/18 12:55:03;;;;;;;21.67;4.53;;;;;;;;;;5091450;28;19927;-57
2021/03/18 12:57:28;;;;;;;;;;;;;;;;;;5093889;28;20222;-57
2021/03/18 12:59:54;;;;;;;16.20;2.83;;;;;;;;;;5091319;28;20031;-57
2021/03/18 13:02:19;;;;;;;20.87;4.13;;;;;;;;;;5093204;28;20036;-57
2021/03/18 13:04:44;;;;;;;15.20;3.43;;;;;;;;;;5091225;28;20370;-57
2021/03/18 13:07:10;;;;;;;15.63;3.37;;;;;;;;;;5091949;28;20137;-58
2021/03/18 13:09:35;;;;;;;22.60;4.15;;;;;;;;;;5091783;28;20652;-57
2021/03/18 13:12:01;;;;;;;19.20;5.70;;;;;;;;;;5092003;28;20024;-58
2021/03/18 13:14:26;;;;;;;24.37;5.27;;;;;;;;;;5092617;28;20081;-58
2021/03/18 13:16:51;;;;;;;16.27;3.23;;;;;;;;;;5091141;28;20139;-57
2021/03/18 13:19:18;;;;;;;14.97;3.37;;;;;;;;;;5091381;28;20119;-58
2021/03/18 13:21:44;;;;;;;16.53;3.43;;;;;;;;;;5092017;28;20038;-58
2021/03/18 13:24:09;;;;;;;21.23;4.50;;;;;;;;;;5091199;28;20264;-58
2021/03/18 13:26:35;;;;;;;17.00;3.95;;;;;;;;;;5089313;28;20040;-58
2021/03/18 13:29:01;;;;;;;14.32;2.47;;;;;;;;;;5074115;28;20456;-58
2021/03/18 13:31:26;;;;;;;16.03;3.30;;;;;;;;;;5092441;28;20066;-58
2021/03/18 13:33:52;;;;;;;11.67;2.40;;;;;;;;;;5072262;28;20024;-56
2021/03/18 13:36:17;;;;;;;16.08;3.20;;;;;;;;;;5092098;28;20064;-56
2021/03/18 13:38:43;;;;;;;17.10;2.70;;;;;;;;;;5057606;28;20071;-57
2021/03/18 13:41:08;;;;;;;16.43;3.20;;;;;;;;;;5091223;28;20070;-57
2021/03/18 13:43:34;;;;;;;10.23;2.67;;;;;;;;;;5092526;28;20036;-56
2021/03/18 13:45:59;;;;;;;13.60;3.87;;;;;;;;;;5091919;28;20134;-57
2021/03/18 13:48:25;;;;;;;20.02;3.47;;;;;;;;;;5092347;28;20268;-56
2021/03/18 13:50:52;;;;;;;13.77;2.90;;;;;;;;;;5090560;28;20039;-56
2021/03/18 13:53:18;;;;;;;16.23;2.50;;;;;;;;;;5092431;28;20026;-56
2021/03/18 13:55:44;;;;;;;16.60;3.10;;;;;;;;;;5090770;28;20632;-57
2021/03/18 13:58:10;;;;;;;18.55;2.92;;;;;;;;;;5089876;28;20032;-57
2021/03/18 14:00:35;;;;;;;14.98;3.92;;;;;;;;;;5090470;28;20032;-57
2021/03/18 14:03:00;;;;;;;18.97;2.77;;;;;;;;;;5091565;28;20114;-57
2021/03/18 14:05:26;;;;;;;23.83;5.20;;;;;;;;;;5090290;28;20056;-57
2021/03/18 14:07:52;;;;;;;25.75;3.90;;;;;;;;;;5091675;28;20263;-58
2021/03/18 14:10:19;;;;;;;19.60;3.53;;;;;;;;;;5092015;28;20118;-57
2021/03/18 14:12:44;;;;;;;19.90;2.63;;;;;;;;;;5089498;28;20063;-57
2021/03/18 14:15:11;;;;;;;11.93;2.73;;;;;;;;;;5091479;28;20284;-57
2021/03/18 14:17:38;;;;;;;16.10;3.47;;;;;;;;;;5092206;28;20024;-59
2021/03/18 14:20:08;;;;;;;18.10;5.00;;;;;;;;;;5099860;28;20281;-58
2021/03/18 14:22:33;;;;;;;13.37;3.47;;;;;;;;;;5106710;28;20040;-58
2021/03/18 14:24:58;;;;;;;14.10;2.20;;;;;;;;;;5103675;28;20086;-58
2021/03/18 14:27:24;;;;;;;13.33;2.73;;;;;;;;;;5092228;28;20320;-61
2021/03/18 14:29:49;;;;;;;15.37;2.87;;;;;;;;;;5093749;28;20391;-59
2021/03/18 14:32:15;;;;;;;11.73;3.07;;;;;;;;;;5093350;28;20032;-56
2021/03/18 14:34:40;;;;;;;15.30;3.42;;;;;;;;;;5092163;28;20039;-56